sensor_id;sensor_type;location;lat;lon;timestamp;P1;durP1;ratioP1;P2;durP2;ratioP2
63534;SDS011;55128;50.230;18.944;2023-08-01T00:01:32;8.90;;;6.13;;
63534;SDS011;55128;50.230;18.944;2023-08-01T00:06:32;9.63;;;5.47;;
63534;SDS011;55128;50.230;18.944;2023-08-01T00:11:32;12.25;;;5.88;;
63534;SDS011;55128;50.230;18.944;2023-08-01T00:16:33;9.97;;;5.90;;
63534;SDS011;55128;50.230;18.944;2023-08-01T00:21:33;7.78;;;5.32;;
63534;SDS011;55128;50.230;18.944;2023-08-01T00:26:34;10.07;;;6.00;;
63534;SDS011;55128;50.230;18.944;2023-08-01T00:31:34;11.02;;;5.80;;
63534;SDS011;55128;50.230;18.944;2023-08-01T00:36:35;8.37;;;5.20;;
63534;SDS011;55128;50.230;18.944;2023-08-01T00:41:35;10.80;;;5.18;;
63534;SDS011;55128;50.230;18.944;2023-08-01T00:46:35;8.00;;;5.63;;
63534;SDS011;55128;50.230;18.944;2023-08-01T00:51:36;10.27;;;5.55;;
63534;SDS011;55128;50.230;18.944;2023-08-01T00:56:36;8.18;;;5.60;;
63534;SDS011;55128;50.230;18.944;2023-08-01T01:01:37;8.15;;;5.15;;
63534;SDS011;55128;50.230;18.944;2023-08-01T01:06:40;6.53;;;5.00;;
63534;SDS011;55128;50.230;18.944;2023-08-01T01:11:44;7.55;;;4.90;;
63534;SDS011;55128;50.230;18.944;2023-08-01T01:16:45;7.95;;;5.38;;
63534;SDS011;55128;50.230;18.944;2023-08-01T01:21:45;8.00;;;5.03;;
63534;SDS011;55128;50.230;18.944;2023-08-01T01:26:47;8.07;;;5.38;;
63534;SDS011;55128;50.230;18.944;2023-08-01T01:31:49;9.23;;;5.20;;
63534;SDS011;55128;50.230;18.944;2023-08-01T01:36:50;8.13;;;4.95;;
63534;SDS011;55128;50.230;18.944;2023-08-01T01:41:50;7.90;;;4.87;;
63534;SDS011;55128;50.230;18.944;2023-08-01T01:46:51;7.20;;;4.75;;
63534;SDS011;55128;50.230;18.944;2023-08-01T01:51:51;9.03;;;5.13;;
63534;SDS011;55128;50.230;18.944;2023-08-01T01:56:51;6.57;;;4.87;;
63534;SDS011;55128;50.230;18.944;2023-08-01T02:01:52;7.65;;;4.97;;
63534;SDS011;55128;50.230;18.944;2023-08-01T02:06:52;7.55;;;4.75;;
63534;SDS011;55128;50.230;18.944;2023-08-01T02:11:54;8.05;;;4.55;;
63534;SDS011;55128;50.230;18.944;2023-08-01T02:16:55;6.60;;;4.53;;
63534;SDS011;55128;50.230;18.944;2023-08-01T02:21:55;7.07;;;4.50;;
63534;SDS011;55128;50.230;18.944;2023-08-01T02:26:55;7.80;;;4.53;;
63534;SDS011;55128;50.230;18.944;2023-08-01T02:31:56;7.70;;;4.40;;
63534;SDS011;55128;50.230;18.944;2023-08-01T02:36:56;6.27;;;4.17;;
63534;SDS011;55128;50.230;18.944;2023-08-01T02:41:56;7.57;;;4.57;;
63534;SDS011;55128;50.230;18.944;2023-08-01T02:46:56;7.78;;;4.40;;
63534;SDS011;55128;50.230;18.944;2023-08-01T02:51:57;6.63;;;3.80;;
63534;SDS011;55128;50.230;18.944;2023-08-01T02:56:58;6.15;;;3.65;;
63534;SDS011;55128;50.230;18.944;2023-08-01T03:01:59;5.88;;;3.63;;
63534;SDS011;55128;50.230;18.944;2023-08-01T03:06:59;6.00;;;4.03;;
63534;SDS011;55128;50.230;18.944;2023-08-01T03:11:59;5.07;;;3.80;;
63534;SDS011;55128;50.230;18.944;2023-08-01T03:17:00;8.05;;;4.03;;
63534;SDS011;55128;50.230;18.944;2023-08-01T03:22:00;6.22;;;3.90;;
63534;SDS011;55128;50.230;18.944;2023-08-01T03:27:01;6.40;;;3.70;;
63534;SDS011;55128;50.230;18.944;2023-08-01T03:32:01;8.63;;;3.60;;
63534;SDS011;55128;50.230;18.944;2023-08-01T03:37:02;5.97;;;3.30;;
63534;SDS011;55128;50.230;18.944;2023-08-01T03:42:03;7.25;;;3.88;;
63534;SDS011;55128;50.230;18.944;2023-08-01T03:47:04;8.15;;;3.80;;
63534;SDS011;55128;50.230;18.944;2023-08-01T03:52:05;6.25;;;3.50;;
63534;SDS011;55128;50.230;18.944;2023-08-01T03:57:06;6.47;;;3.83;;
63534;SDS011;55128;50.230;18.944;2023-08-01T04:02:06;6.28;;;3.78;;
63534;SDS011;55128;50.230;18.944;2023-08-01T04:07:06;6.25;;;3.78;;
63534;SDS011;55128;50.230;18.944;2023-08-01T04:12:07;7.40;;;3.80;;
63534;SDS011;55128;50.230;18.944;2023-08-01T04:17:07;7.95;;;3.75;;
63534;SDS011;55128;50.230;18.944;2023-08-01T04:22:08;7.77;;;3.60;;
63534;SDS011;55128;50.230;18.944;2023-08-01T04:27:09;6.40;;;3.60;;
63534;SDS011;55128;50.230;18.944;2023-08-01T04:32:09;5.53;;;3.47;;
63534;SDS011;55128;50.230;18.944;2023-08-01T04:37:12;6.50;;;4.03;;
63534;SDS011;55128;50.230;18.944;2023-08-01T04:42:13;7.57;;;3.53;;
63534;SDS011;55128;50.230;18.944;2023-08-01T04:47:14;6.40;;;3.70;;
63534;SDS011;55128;50.230;18.944;2023-08-01T04:52:14;5.13;;;3.45;;
63534;SDS011;55128;50.230;18.944;2023-08-01T04:57:15;5.00;;;3.30;;
63534;SDS011;55128;50.230;18.944;2023-08-01T05:02:15;6.32;;;3.40;;
63534;SDS011;55128;50.230;18.944;2023-08-01T05:07:15;6.68;;;3.47;;
63534;SDS011;55128;50.230;18.944;2023-08-01T05:12:15;5.70;;;3.70;;
63534;SDS011;55128;50.230;18.944;2023-08-01T05:17:16;5.40;;;3.67;;
63534;SDS011;55128;50.230;18.944;2023-08-01T05:22:16;5.17;;;3.60;;
63534;SDS011;55128;50.230;18.944;2023-08-01T05:27:16;8.17;;;3.87;;
63534;SDS011;55128;50.230;18.944;2023-08-01T05:32:17;7.55;;;3.75;;
63534;SDS011;55128;50.230;18.944;2023-08-01T05:37:17;6.80;;;4.23;;
63534;SDS011;55128;50.230;18.944;2023-08-01T05:42:18;7.23;;;3.90;;
63534;SDS011;55128;50.230;18.944;2023-08-01T05:47:18;6.30;;;3.93;;
63534;SDS011;55128;50.230;18.944;2023-08-01T05:52:19;5.38;;;3.97;;
63534;SDS011;55128;50.230;18.944;2023-08-01T05:57:19;6.80;;;3.83;;
63534;SDS011;55128;50.230;18.944;2023-08-01T06:02:21;6.53;;;3.90;;
63534;SDS011;55128;50.230;18.944;2023-08-01T06:07:21;7.20;;;3.53;;
63534;SDS011;55128;50.230;18.944;2023-08-01T06:12:23;7.35;;;4.00;;
63534;SDS011;55128;50.230;18.944;2023-08-01T06:17:23;5.40;;;3.40;;
63534;SDS011;55128;50.230;18.944;2023-08-01T06:22:26;5.30;;;3.03;;
63534;SDS011;55128;50.230;18.944;2023-08-01T06:27:27;5.22;;;3.38;;
63534;SDS011;55128;50.230;18.944;2023-08-01T06:32:27;9.57;;;3.33;;
63534;SDS011;55128;50.230;18.944;2023-08-01T06:37:27;6.28;;;3.65;;
63534;SDS011;55128;50.230;18.944;2023-08-01T06:42:28;5.07;;;3.42;;
63534;SDS011;55128;50.230;18.944;2023-08-01T06:47:30;5.38;;;3.25;;
63534;SDS011;55128;50.230;18.944;2023-08-01T06:52:30;5.75;;;3.13;;
63534;SDS011;55128;50.230;18.944;2023-08-01T06:57:30;5.03;;;2.78;;
63534;SDS011;55128;50.230;18.944;2023-08-01T07:02:31;3.87;;;2.73;;
63534;SDS011;55128;50.230;18.944;2023-08-01T07:07:31;4.65;;;2.75;;
63534;SDS011;55128;50.230;18.944;2023-08-01T07:12:32;5.53;;;3.17;;
63534;SDS011;55128;50.230;18.944;2023-08-01T07:17:32;4.33;;;2.80;;
63534;SDS011;55128;50.230;18.944;2023-08-01T07:22:32;5.23;;;2.80;;
63534;SDS011;55128;50.230;18.944;2023-08-01T07:27:33;3.47;;;2.40;;
63534;SDS011;55128;50.230;18.944;2023-08-01T07:32:33;5.33;;;2.97;;
63534;SDS011;55128;50.230;18.944;2023-08-01T07:37:33;8.10;;;4.87;;
63534;SDS011;55128;50.230;18.944;2023-08-01T07:42:34;3.22;;;2.38;;
63534;SDS011;55128;50.230;18.944;2023-08-01T07:47:34;5.23;;;2.87;;
63534;SDS011;55128;50.230;18.944;2023-08-01T07:52:34;3.40;;;2.47;;
63534;SDS011;55128;50.230;18.944;2023-08-01T07:57:35;5.67;;;2.60;;
63534;SDS011;55128;50.230;18.944;2023-08-01T08:02:35;3.50;;;2.42;;
63534;SDS011;55128;50.230;18.944;2023-08-01T08:07:38;5.27;;;2.57;;
63534;SDS011;55128;50.230;18.944;2023-08-01T08:12:39;4.13;;;2.65;;
63534;SDS011;55128;50.230;18.944;2023-08-01T08:17:41;3.25;;;2.20;;
63534;SDS011;55128;50.230;18.944;2023-08-01T08:22:41;3.42;;;2.47;;
63534;SDS011;55128;50.230;18.944;2023-08-01T08:27:42;3.80;;;2.57;;
63534;SDS011;55128;50.230;18.944;2023-08-01T08:32:42;3.73;;;2.77;;
63534;SDS011;55128;50.230;18.944;2023-08-01T08:37:42;4.63;;;2.67;;
63534;SDS011;55128;50.230;18.944;2023-08-01T08:42:43;4.43;;;2.70;;
63534;SDS011;55128;50.230;18.944;2023-08-01T08:47:48;4.18;;;2.88;;
63534;SDS011;55128;50.230;18.944;2023-08-01T08:53:00;3.65;;;2.80;;
63534;SDS011;55128;50.230;18.944;2023-08-01T08:58:01;5.45;;;2.83;;
63534;SDS011;55128;50.230;18.944;2023-08-01T09:03:01;4.15;;;2.90;;
63534;SDS011;55128;50.230;18.944;2023-08-01T09:08:04;5.47;;;3.10;;
63534;SDS011;55128;50.230;18.944;2023-08-01T09:13:11;3.60;;;2.75;;
63534;SDS011;55128;50.230;18.944;2023-08-01T09:18:12;6.20;;;2.90;;
63534;SDS011;55128;50.230;18.944;2023-08-01T09:23:13;4.40;;;3.30;;
63534;SDS011;55128;50.230;18.944;2023-08-01T09:28:18;4.13;;;2.88;;
63534;SDS011;55128;50.230;18.944;2023-08-01T09:33:20;4.20;;;2.80;;
63534;SDS011;55128;50.230;18.944;2023-08-01T09:38:20;5.90;;;3.10;;
63534;SDS011;55128;50.230;18.944;2023-08-01T09:43:21;3.83;;;2.85;;
63534;SDS011;55128;50.230;18.944;2023-08-01T09:48:22;4.43;;;3.17;;
63534;SDS011;55128;50.230;18.944;2023-08-01T09:53:26;4.70;;;3.47;;
63534;SDS011;55128;50.230;18.944;2023-08-01T09:58:26;7.10;;;3.47;;
63534;SDS011;55128;50.230;18.944;2023-08-01T10:03:34;6.32;;;3.75;;
63534;SDS011;55128;50.230;18.944;2023-08-01T10:08:34;4.03;;;3.38;;
63534;SDS011;55128;50.230;18.944;2023-08-01T10:13:35;6.68;;;3.67;;
63534;SDS011;55128;50.230;18.944;2023-08-01T10:18:36;5.45;;;3.65;;
63534;SDS011;55128;50.230;18.944;2023-08-01T10:23:38;5.82;;;3.92;;
63534;SDS011;55128;50.230;18.944;2023-08-01T10:28:40;5.53;;;3.47;;
63534;SDS011;55128;50.230;18.944;2023-08-01T10:33:49;6.38;;;3.88;;
63534;SDS011;55128;50.230;18.944;2023-08-01T10:38:51;7.88;;;4.78;;
63534;SDS011;55128;50.230;18.944;2023-08-01T10:44:08;5.35;;;4.38;;
63534;SDS011;55128;50.230;18.944;2023-08-01T10:49:16;4.45;;;3.30;;
63534;SDS011;55128;50.230;18.944;2023-08-01T10:54:18;6.85;;;3.17;;
63534;SDS011;55128;50.230;18.944;2023-08-01T10:59:25;4.18;;;3.20;;
63534;SDS011;55128;50.230;18.944;2023-08-01T11:04:26;7.63;;;3.30;;
63534;SDS011;55128;50.230;18.944;2023-08-01T11:09:26;4.88;;;3.03;;
63534;SDS011;55128;50.230;18.944;2023-08-01T11:14:28;5.30;;;3.47;;
63534;SDS011;55128;50.230;18.944;2023-08-01T11:19:29;4.88;;;3.50;;
63534;SDS011;55128;50.230;18.944;2023-08-01T11:24:29;4.22;;;2.83;;
63534;SDS011;55128;50.230;18.944;2023-08-01T11:29:30;3.95;;;3.10;;
63534;SDS011;55128;50.230;18.944;2023-08-01T11:34:38;4.45;;;3.15;;
63534;SDS011;55128;50.230;18.944;2023-08-01T11:39:40;4.57;;;3.40;;
63534;SDS011;55128;50.230;18.944;2023-08-01T11:44:41;4.85;;;3.03;;
63534;SDS011;55128;50.230;18.944;2023-08-01T11:49:45;6.00;;;3.28;;
63534;SDS011;55128;50.230;18.944;2023-08-01T11:54:46;7.53;;;3.60;;
63534;SDS011;55128;50.230;18.944;2023-08-01T11:59:50;6.10;;;3.58;;
63534;SDS011;55128;50.230;18.944;2023-08-01T12:04:53;6.45;;;3.58;;
63534;SDS011;55128;50.230;18.944;2023-08-01T12:09:57;5.68;;;3.45;;
63534;SDS011;55128;50.230;18.944;2023-08-01T12:15:01;5.97;;;3.40;;
63534;SDS011;55128;50.230;18.944;2023-08-01T12:20:01;3.65;;;3.28;;
63534;SDS011;55128;50.230;18.944;2023-08-01T12:25:02;6.85;;;3.83;;
63534;SDS011;55128;50.230;18.944;2023-08-01T12:30:02;4.20;;;3.22;;
63534;SDS011;55128;50.230;18.944;2023-08-01T12:35:03;4.68;;;3.35;;
63534;SDS011;55128;50.230;18.944;2023-08-01T12:40:04;4.68;;;3.17;;
63534;SDS011;55128;50.230;18.944;2023-08-01T12:45:05;5.10;;;3.30;;
63534;SDS011;55128;50.230;18.944;2023-08-01T12:50:06;5.25;;;3.30;;
63534;SDS011;55128;50.230;18.944;2023-08-01T12:55:07;5.30;;;2.90;;
63534;SDS011;55128;50.230;18.944;2023-08-01T13:00:07;4.40;;;3.28;;
63534;SDS011;55128;50.230;18.944;2023-08-01T13:05:10;4.05;;;3.08;;
63534;SDS011;55128;50.230;18.944;2023-08-01T13:10:11;4.50;;;3.47;;
63534;SDS011;55128;50.230;18.944;2023-08-01T13:15:11;4.00;;;3.20;;
63534;SDS011;55128;50.230;18.944;2023-08-01T13:20:11;5.17;;;2.90;;
63534;SDS011;55128;50.230;18.944;2023-08-01T13:25:15;3.58;;;2.63;;
63534;SDS011;55128;50.230;18.944;2023-08-01T13:30:16;3.42;;;2.92;;
63534;SDS011;55128;50.230;18.944;2023-08-01T13:35:20;5.18;;;3.30;;
63534;SDS011;55128;50.230;18.944;2023-08-01T13:40:20;4.70;;;2.80;;
63534;SDS011;55128;50.230;18.944;2023-08-01T13:45:21;2.93;;;2.60;;
63534;SDS011;55128;50.230;18.944;2023-08-01T13:50:21;3.80;;;3.13;;
63534;SDS011;55128;50.230;18.944;2023-08-01T13:55:21;3.53;;;2.83;;
63534;SDS011;55128;50.230;18.944;2023-08-01T14:00:22;4.87;;;3.37;;
63534;SDS011;55128;50.230;18.944;2023-08-01T14:05:25;3.93;;;2.90;;
63534;SDS011;55128;50.230;18.944;2023-08-01T14:10:26;5.53;;;3.40;;
63534;SDS011;55128;50.230;18.944;2023-08-01T14:15:27;4.45;;;3.10;;
63534;SDS011;55128;50.230;18.944;2023-08-01T14:20:27;4.43;;;3.15;;
63534;SDS011;55128;50.230;18.944;2023-08-01T14:25:27;13.32;;;10.10;;
63534;SDS011;55128;50.230;18.944;2023-08-01T14:30:28;4.10;;;2.90;;
63534;SDS011;55128;50.230;18.944;2023-08-01T14:35:28;4.83;;;2.80;;
63534;SDS011;55128;50.230;18.944;2023-08-01T14:40:29;3.90;;;2.88;;
63534;SDS011;55128;50.230;18.944;2023-08-01T14:45:30;5.53;;;3.10;;
63534;SDS011;55128;50.230;18.944;2023-08-01T14:50:30;4.70;;;3.00;;
63534;SDS011;55128;50.230;18.944;2023-08-01T14:55:31;4.88;;;3.50;;
63534;SDS011;55128;50.230;18.944;2023-08-01T15:00:35;4.80;;;3.23;;
63534;SDS011;55128;50.230;18.944;2023-08-01T15:05:36;4.35;;;3.13;;
63534;SDS011;55128;50.230;18.944;2023-08-01T15:10:36;4.70;;;3.10;;
63534;SDS011;55128;50.230;18.944;2023-08-01T15:15:37;4.32;;;3.10;;
63534;SDS011;55128;50.230;18.944;2023-08-01T15:20:37;4.30;;;3.00;;
63534;SDS011;55128;50.230;18.944;2023-08-01T15:25:40;3.15;;;2.60;;
63534;SDS011;55128;50.230;18.944;2023-08-01T15:30:41;4.80;;;2.90;;
63534;SDS011;55128;50.230;18.944;2023-08-01T15:35:41;5.30;;;3.40;;
63534;SDS011;55128;50.230;18.944;2023-08-01T15:40:42;4.05;;;3.15;;
63534;SDS011;55128;50.230;18.944;2023-08-01T15:45:42;4.23;;;2.90;;
63534;SDS011;55128;50.230;18.944;2023-08-01T15:50:42;4.13;;;2.93;;
63534;SDS011;55128;50.230;18.944;2023-08-01T15:55:45;6.65;;;3.15;;
63534;SDS011;55128;50.230;18.944;2023-08-01T16:00:46;5.10;;;3.40;;
63534;SDS011;55128;50.230;18.944;2023-08-01T16:05:46;4.77;;;3.00;;
63534;SDS011;55128;50.230;18.944;2023-08-01T16:10:47;5.68;;;2.80;;
63534;SDS011;55128;50.230;18.944;2023-08-01T16:15:47;3.63;;;3.17;;
63534;SDS011;55128;50.230;18.944;2023-08-01T16:20:49;5.78;;;3.53;;
63534;SDS011;55128;50.230;18.944;2023-08-01T16:25:50;7.10;;;3.08;;
63534;SDS011;55128;50.230;18.944;2023-08-01T16:30:50;3.77;;;2.77;;
63534;SDS011;55128;50.230;18.944;2023-08-01T16:35:50;5.13;;;2.90;;
63534;SDS011;55128;50.230;18.944;2023-08-01T16:40:51;5.70;;;3.28;;
63534;SDS011;55128;50.230;18.944;2023-08-01T16:45:51;4.77;;;3.47;;
63534;SDS011;55128;50.230;18.944;2023-08-01T16:50:52;4.93;;;3.97;;
63534;SDS011;55128;50.230;18.944;2023-08-01T16:55:52;5.07;;;4.00;;
63534;SDS011;55128;50.230;18.944;2023-08-01T17:00:55;6.23;;;4.53;;
63534;SDS011;55128;50.230;18.944;2023-08-01T17:05:55;5.65;;;4.53;;
63534;SDS011;55128;50.230;18.944;2023-08-01T17:10:56;5.05;;;3.17;;
63534;SDS011;55128;50.230;18.944;2023-08-01T17:15:57;4.72;;;3.60;;
63534;SDS011;55128;50.230;18.944;2023-08-01T17:20:59;3.75;;;2.85;;
63534;SDS011;55128;50.230;18.944;2023-08-01T17:26:00;3.90;;;3.30;;
63534;SDS011;55128;50.230;18.944;2023-08-01T17:31:04;5.10;;;3.07;;
63534;SDS011;55128;50.230;18.944;2023-08-01T17:36:06;4.22;;;2.67;;
63534;SDS011;55128;50.230;18.944;2023-08-01T17:41:17;4.65;;;2.88;;
63534;SDS011;55128;50.230;18.944;2023-08-01T17:46:18;5.25;;;2.83;;
63534;SDS011;55128;50.230;18.944;2023-08-01T17:51:20;4.47;;;3.30;;
63534;SDS011;55128;50.230;18.944;2023-08-01T17:56:20;5.05;;;2.90;;
63534;SDS011;55128;50.230;18.944;2023-08-01T18:01:20;4.15;;;2.88;;
63534;SDS011;55128;50.230;18.944;2023-08-01T18:06:21;4.22;;;2.70;;
63534;SDS011;55128;50.230;18.944;2023-08-01T18:11:21;5.30;;;2.67;;
63534;SDS011;55128;50.230;18.944;2023-08-01T18:16:24;5.10;;;2.90;;
63534;SDS011;55128;50.230;18.944;2023-08-01T18:21:25;4.90;;;2.78;;
63534;SDS011;55128;50.230;18.944;2023-08-01T18:26:25;3.70;;;2.70;;
63534;SDS011;55128;50.230;18.944;2023-08-01T18:31:26;4.15;;;2.70;;
63534;SDS011;55128;50.230;18.944;2023-08-01T18:36:27;3.83;;;2.58;;
63534;SDS011;55128;50.230;18.944;2023-08-01T18:41:28;3.70;;;2.65;;
63534;SDS011;55128;50.230;18.944;2023-08-01T18:46:28;3.88;;;2.63;;
63534;SDS011;55128;50.230;18.944;2023-08-01T18:51:29;3.10;;;2.40;;
63534;SDS011;55128;50.230;18.944;2023-08-01T18:56:29;4.85;;;2.58;;
63534;SDS011;55128;50.230;18.944;2023-08-01T19:01:30;5.63;;;3.50;;
63534;SDS011;55128;50.230;18.944;2023-08-01T19:06:30;4.10;;;3.03;;
63534;SDS011;55128;50.230;18.944;2023-08-01T19:11:30;4.22;;;2.97;;
63534;SDS011;55128;50.230;18.944;2023-08-01T19:16:31;5.22;;;3.70;;
63534;SDS011;55128;50.230;18.944;2023-08-01T19:21:31;6.03;;;3.97;;
63534;SDS011;55128;50.230;18.944;2023-08-01T19:26:31;8.38;;;3.88;;
63534;SDS011;55128;50.230;18.944;2023-08-01T19:31:32;5.93;;;3.97;;
63534;SDS011;55128;50.230;18.944;2023-08-01T19:36:32;6.23;;;3.90;;
63534;SDS011;55128;50.230;18.944;2023-08-01T19:41:33;5.78;;;4.30;;
63534;SDS011;55128;50.230;18.944;2023-08-01T19:46:34;5.50;;;3.90;;
63534;SDS011;55128;50.230;18.944;2023-08-01T19:51:34;7.93;;;5.00;;
63534;SDS011;55128;50.230;18.944;2023-08-01T19:56:35;6.60;;;4.93;;
63534;SDS011;55128;50.230;18.944;2023-08-01T20:01:35;6.60;;;4.93;;
63534;SDS011;55128;50.230;18.944;2023-08-01T20:06:35;8.23;;;6.10;;
63534;SDS011;55128;50.230;18.944;2023-08-01T20:11:36;9.97;;;5.53;;
63534;SDS011;55128;50.230;18.944;2023-08-01T20:16:37;7.95;;;5.50;;
63534;SDS011;55128;50.230;18.944;2023-08-01T20:21:37;8.02;;;6.03;;
63534;SDS011;55128;50.230;18.944;2023-08-01T20:26:38;9.50;;;6.43;;
63534;SDS011;55128;50.230;18.944;2023-08-01T20:31:38;8.73;;;6.28;;
63534;SDS011;55128;50.230;18.944;2023-08-01T20:36:39;7.43;;;5.88;;
63534;SDS011;55128;50.230;18.944;2023-08-01T20:41:40;9.65;;;5.70;;
63534;SDS011;55128;50.230;18.944;2023-08-01T20:46:41;6.13;;;5.22;;
63534;SDS011;55128;50.230;18.944;2023-08-01T20:51:42;7.97;;;5.13;;
63534;SDS011;55128;50.230;18.944;2023-08-01T20:56:44;8.43;;;5.00;;
63534;SDS011;55128;50.230;18.944;2023-08-01T21:01:44;6.55;;;4.90;;
63534;SDS011;55128;50.230;18.944;2023-08-01T21:06:45;8.65;;;5.07;;
63534;SDS011;55128;50.230;18.944;2023-08-01T21:11:45;8.20;;;4.43;;
63534;SDS011;55128;50.230;18.944;2023-08-01T21:16:46;5.53;;;4.53;;
63534;SDS011;55128;50.230;18.944;2023-08-01T21:21:46;5.65;;;4.13;;
63534;SDS011;55128;50.230;18.944;2023-08-01T21:26:46;5.28;;;4.68;;
63534;SDS011;55128;50.230;18.944;2023-08-01T21:31:47;6.50;;;4.40;;
63534;SDS011;55128;50.230;18.944;2023-08-01T21:36:49;6.18;;;4.45;;
63534;SDS011;55128;50.230;18.944;2023-08-01T21:41:49;6.23;;;4.33;;
63534;SDS011;55128;50.230;18.944;2023-08-01T21:46:49;8.37;;;4.73;;
63534;SDS011;55128;50.230;18.944;2023-08-01T21:51:50;8.13;;;4.40;;
63534;SDS011;55128;50.230;18.944;2023-08-01T21:56:50;6.97;;;4.55;;
63534;SDS011;55128;50.230;18.944;2023-08-01T22:01:51;5.20;;;4.00;;
63534;SDS011;55128;50.230;18.944;2023-08-01T22:06:51;5.37;;;3.90;;
63534;SDS011;55128;50.230;18.944;2023-08-01T22:11:51;5.72;;;3.75;;
63534;SDS011;55128;50.230;18.944;2023-08-01T22:16:52;5.80;;;4.00;;
63534;SDS011;55128;50.230;18.944;2023-08-01T22:21:52;5.10;;;3.83;;
63534;SDS011;55128;50.230;18.944;2023-08-01T22:26:52;5.55;;;3.97;;
63534;SDS011;55128;50.230;18.944;2023-08-01T22:31:53;5.43;;;4.03;;
63534;SDS011;55128;50.230;18.944;2023-08-01T22:36:54;5.45;;;3.55;;
63534;SDS011;55128;50.230;18.944;2023-08-01T22:41:54;5.65;;;3.60;;
63534;SDS011;55128;50.230;18.944;2023-08-01T22:46:55;4.90;;;3.40;;
63534;SDS011;55128;50.230;18.944;2023-08-01T22:51:55;4.45;;;3.80;;
63534;SDS011;55128;50.230;18.944;2023-08-01T22:56:56;5.03;;;3.50;;
63534;SDS011;55128;50.230;18.944;2023-08-01T23:01:56;5.85;;;3.20;;
63534;SDS011;55128;50.230;18.944;2023-08-01T23:06:56;4.87;;;3.17;;
63534;SDS011;55128;50.230;18.944;2023-08-01T23:11:57;6.27;;;4.10;;
63534;SDS011;55128;50.230;18.944;2023-08-01T23:16:57;4.80;;;3.83;;
63534;SDS011;55128;50.230;18.944;2023-08-01T23:21:57;5.43;;;3.03;;
63534;SDS011;55128;50.230;18.944;2023-08-01T23:26:58;5.43;;;3.70;;
63534;SDS011;55128;50.230;18.944;2023-08-01T23:31:58;5.03;;;4.00;;
63534;SDS011;55128;50.230;18.944;2023-08-01T23:36:58;4.63;;;3.60;;
63534;SDS011;55128;50.230;18.944;2023-08-01T23:41:59;5.82;;;3.97;;
63534;SDS011;55128;50.230;18.944;2023-08-01T23:47:00;5.35;;;3.53;;
63534;SDS011;55128;50.230;18.944;2023-08-01T23:52:00;4.63;;;3.57;;
63534;SDS011;55128;50.230;18.944;2023-08-01T23:57:01;5.75;;;3.83;;
